Time;durP1;ratioP1;P1;durP2;ratioP2;P2;SDS_P1;SDS_P2;PMS_P1;PMS_P2;Temp;Humidity;BMP_temperature;BMP_pressure;BME280_temperature;BME280_humidity;BME280_pressure;Samples;Min_cycle;Max_cycle;Signal;HPM_P1;HPM_P2
2024/03/06 00:00:34;;;;;;;6.50;5.10;;;9.40;20.20;;;;;;5097221;28;20171;-86
2024/03/06 00:03:03;;;;;;;7.30;5.93;;;9.50;21.80;;;;;;5098877;28;20703;-95
2024/03/06 00:05:29;;;;;;;6.40;5.30;;;9.30;22.90;;;;;;5098302;28;20183;-85
2024/03/06 00:07:54;;;;;;;6.73;5.87;;;9.50;22.50;;;;;;5100917;28;20168;-88
2024/03/06 00:10:20;;;;;;;7.63;5.43;;;9.50;22.50;;;;;;5101746;28;20272;-91
2024/03/06 00:12:45;;;;;;;7.57;6.13;;;9.50;20.10;;;;;;5099443;28;20178;-86
2024/03/06 00:15:11;;;;;;;6.20;5.33;;;9.50;20.70;;;;;;5101942;28;20176;-84
2024/03/06 00:17:37;;;;;;;5.73;5.10;;;9.60;18.80;;;;;;5102112;28;20233;-83
2024/03/06 00:20:08;;;;;;;7.27;5.13;;;9.60;18.20;;;;;;5104774;28;20175;-87
2024/03/06 00:22:34;;;;;;;6.67;5.10;;;9.50;16.70;;;;;;5101486;28;20168;-83
2024/03/06 00:25:02;;;;;;;6.20;5.00;;;9.50;17.80;;;;;;5101461;28;20173;-85
2024/03/06 00:27:28;;;;;;;8.33;5.87;;;9.40;20.70;;;;;;5099399;28;20275;-85
2024/03/06 00:29:55;;;;;;;7.33;5.73;;;9.40;21.50;;;;;;5101381;28;20254;-87
2024/03/06 00:32:23;;;;;;;6.40;5.20;;;9.60;21.00;;;;;;5099482;28;20171;-85
2024/03/06 00:34:49;;;;;;;9.30;5.83;;;9.60;20.40;;;;;;5100620;28;20167;-86
2024/03/06 00:37:17;;;;;;;7.37;5.50;;;9.70;19.80;;;;;;5097755;28;20589;-85
2024/03/06 00:39:44;;;;;;;6.80;5.53;;;9.70;19.00;;;;;;5098253;28;20193;-87
2024/03/06 00:42:13;;;;;;;6.77;5.67;;;9.70;16.50;;;;;;5102009;28;20172;-83
2024/03/06 00:44:41;;;;;;;5.80;5.13;;;9.90;14.80;;;;;;5101798;28;20164;-86
2024/03/06 00:47:09;;;;;;;7.47;5.67;;;9.90;13.30;;;;;;5099329;28;20203;-88
2024/03/06 00:49:37;;;;;;;6.57;5.33;;;10.00;12.00;;;;;;5100180;28;20270;-93
2024/03/06 00:52:04;;;;;;;7.10;5.27;;;9.90;10.90;;;;;;5100138;28;20193;-86
2024/03/06 00:54:29;;;;;;;6.40;5.73;;;9.80;10.10;;;;;;5103762;28;20244;-85
2024/03/06 00:56:57;;;;;;;8.33;5.60;;;9.90;10.80;;;;;;5103050;28;20167;-86
2024/03/06 00:59:24;;;;;;;6.83;5.70;;;9.90;10.80;;;;;;5103382;28;20190;-85
2024/03/06 01:01:49;;;;;;;7.60;5.90;;;9.70;10.20;;;;;;5097334;28;20170;-91
2024/03/06 01:04:16;;;;;;;7.43;5.23;;;9.80;11.90;;;;;;5100085;28;20167;-87
2024/03/06 01:06:45;;;;;;;6.23;5.63;;;9.50;12.20;;;;;;5098165;28;20192;-86
2024/03/06 01:09:17;;;;;;;6.10;5.13;;;9.40;16.10;;;;;;5097970;28;20203;-87
2024/03/06 01:11:47;;;;;;;7.87;5.47;;;9.40;20.90;;;;;;5099713;28;20168;-86
2024/03/06 01:14:17;;;;;;;7.53;5.53;;;9.20;24.30;;;;;;5101283;28;20636;-87
2024/03/06 01:16:42;;;;;;;6.47;5.77;;;9.10;25.80;;;;;;5098715;28;20167;-90
2024/03/06 01:19:08;;;;;;;7.03;5.83;;;9.30;27.00;;;;;;5098349;28;20175;-92
2024/03/06 01:21:35;;;;;;;7.50;5.87;;;9.20;28.70;;;;;;5098167;28;20250;-85
2024/03/06 01:24:01;;;;;;;8.23;5.57;;;9.20;30.20;;;;;;5096833;28;20321;-85
2024/03/06 01:26:27;;;;;;;7.13;5.63;;;8.90;33.90;;;;;;5096312;28;20262;-95
2024/03/06 01:28:53;;;;;;;6.73;5.40;;;8.80;38.50;;;;;;5095068;28;20175;-86
2024/03/06 01:31:20;;;;;;;7.00;5.70;;;8.70;43.80;;;;;;5095090;28;20186;-90
2024/03/06 01:33:45;;;;;;;8.53;5.80;;;8.80;45.10;;;;;;5097195;28;20239;-85
2024/03/06 01:36:14;;;;;;;7.10;5.40;;;8.80;43.20;;;;;;5096328;28;20199;-87
2024/03/06 01:38:41;;;;;;;6.80;5.83;;;8.80;44.00;;;;;;5097300;28;20218;-92
2024/03/06 01:41:10;;;;;;;6.97;5.60;;;8.80;43.70;;;;;;5094266;28;20168;-87
2024/03/06 01:43:39;;;;;;;7.33;6.00;;;8.80;44.80;;;;;;5095988;28;20233;-95
2024/03/06 01:46:05;;;;;;;7.63;5.90;;;8.90;43.50;;;;;;5095083;28;20175;-85
2024/03/06 01:48:33;;;;;;;7.07;6.20;;;8.80;42.50;;;;;;5096272;28;20294;-91
2024/03/06 01:51:02;;;;;;;7.23;5.80;;;8.90;41.30;;;;;;5096235;28;20211;-83
2024/03/06 01:53:34;;;;;;;7.40;6.60;;;8.80;42.20;;;;;;5097557;28;20187;-83
2024/03/06 01:56:01;;;;;;;8.10;6.27;;;8.80;42.50;;;;;;5098227;28;20210;-88
2024/03/06 01:58:27;;;;;;;8.87;6.53;;;8.60;43.00;;;;;;5097746;28;20172;-89
2024/03/06 02:00:55;;;;;;;6.53;5.80;;;8.50;46.20;;;;;;5098182;28;20183;-86
2024/03/06 02:03:21;;;;;;;6.70;6.00;;;8.60;48.60;;;;;;5097584;28;20198;-90
2024/03/06 02:05:51;;;;;;;6.83;6.10;;;8.50;47.10;;;;;;5100602;28;20168;-85
2024/03/06 02:08:17;;;;;;;6.93;5.57;;;8.50;48.50;;;;;;5082050;28;20168;-85
2024/03/06 02:10:44;;;;;;;8.00;6.03;;;8.60;48.90;;;;;;5099823;28;20264;-89
2024/03/06 02:13:10;;;;;;;6.97;6.27;;;8.80;47.20;;;;;;5099922;28;20168;-85
2024/03/06 02:15:38;;;;;;;7.00;5.83;;;8.70;46.10;;;;;;5103553;28;20239;-86
2024/03/06 02:18:08;;;;;;;7.20;6.00;;;8.80;45.80;;;;;;5103147;28;20513;-83
2024/03/06 02:20:40;;;;;;;9.83;5.97;;;8.60;46.90;;;;;;5102088;28;20168;-84
2024/03/06 02:23:08;;;;;;;6.20;5.03;;;8.40;46.80;;;;;;5100265;28;20172;-83
2024/03/06 02:25:35;;;;;;;7.60;5.70;;;8.40;50.60;;;;;;5099495;28;20533;-90
2024/03/06 02:28:00;;;;;;;6.73;6.00;;;8.50;48.60;;;;;;5099656;28;20256;-90
2024/03/06 02:30:26;;;;;;;8.07;5.80;;;8.50;49.50;;;;;;5103574;28;20207;-84
2024/03/06 02:32:53;;;;;;;7.97;6.40;;;8.50;49.30;;;;;;5104018;28;20172;-83
2024/03/06 02:35:20;;;;;;;6.93;6.13;;;8.40;51.40;;;;;;5104971;28;20163;-83
2024/03/06 02:37:49;;;;;;;6.20;5.60;;;8.40;53.50;;;;;;5100421;28;20171;-84
2024/03/06 02:40:15;;;;;;;7.53;6.53;;;8.40;52.90;;;;;;5099302;28;20210;-95
2024/03/06 02:42:43;;;;;;;7.87;6.50;;;8.40;52.70;;;;;;5099238;28;20163;-85
2024/03/06 02:45:09;;;;;;;6.90;6.10;;;8.40;51.90;;;;;;5099921;28;20172;-89
2024/03/06 02:47:35;;;;;;;6.90;6.20;;;8.30;52.80;;;;;;5098426;28;20606;-84
2024/03/06 02:50:00;;;;;;;7.00;5.93;;;8.20;54.80;;;;;;5100140;28;20207;-89
2024/03/06 02:52:26;;;;;;;7.87;6.33;;;8.20;56.50;;;;;;5097956;28;20175;-84
2024/03/06 02:54:52;;;;;;;8.20;6.30;;;8.30;55.90;;;;;;5102970;28;20371;-84
2024/03/06 02:57:17;;;;;;;9.07;6.20;;;8.10;57.40;;;;;;5102992;28;20175;-85
2024/03/06 02:59:46;;;;;;;8.43;6.20;;;8.00;59.90;;;;;;5099623;28;20176;-93
2024/03/06 03:02:11;;;;;;;12.07;6.27;;;8.00;62.70;;;;;;5098465;28;20191;-86
2024/03/06 03:04:37;;;;;;;6.53;5.83;;;8.00;64.70;;;;;;5099700;28;20186;-85
2024/03/06 03:07:05;;;;;;;7.53;6.43;;;8.00;64.60;;;;;;5099099;28;20692;-83
2024/03/06 03:09:39;;;;;;;7.60;6.70;;;8.10;65.60;;;;;;5101409;28;20223;-83
2024/03/06 03:12:13;;;;;;;8.43;6.23;;;8.30;59.90;;;;;;5104159;28;20213;-89
2024/03/06 03:14:43;;;;;;;7.40;6.70;;;8.20;59.00;;;;;;5098820;28;20174;-91
2024/03/06 03:17:10;;;;;;;8.10;6.90;;;8.30;57.70;;;;;;5097910;28;20168;-84
2024/03/06 03:19:42;;;;;;;7.50;6.70;;;8.10;57.30;;;;;;5099261;28;20178;-85
2024/03/06 03:22:09;;;;;;;7.73;6.80;;;8.10;56.60;;;;;;5098963;28;20228;-92
2024/03/06 03:24:36;;;;;;;8.90;7.47;;;8.30;55.30;;;;;;5097440;28;20263;-87
2024/03/06 03:27:03;;;;;;;9.27;7.83;;;8.20;50.20;;;;;;5101414;28;20643;-84
2024/03/06 03:29:29;;;;;;;8.17;6.67;;;8.40;46.50;;;;;;5101755;28;20207;-87
2024/03/06 03:31:55;;;;;;;8.67;7.60;;;8.40;43.10;;;;;;5102066;28;20175;-84
2024/03/06 03:34:23;;;;;;;8.70;7.70;;;8.40;40.20;;;;;;5102274;28;20190;-86
2024/03/06 03:36:49;;;;;;;9.67;8.47;;;8.50;38.40;;;;;;5102550;28;20178;-84
2024/03/06 03:39:20;;;;;;;8.93;7.83;;;8.40;35.60;;;;;;5101299;28;20204;-85
2024/03/06 03:41:48;;;;;;;9.90;7.80;;;8.30;37.10;;;;;;5100758;28;20159;-95
2024/03/06 03:44:21;;;;;;;9.73;8.73;;;8.40;36.50;;;;;;5080615;28;20182;-87
2024/03/06 03:46:48;;;;;;;9.43;8.43;;;8.30;37.10;;;;;;5098638;28;20172;-89
2024/03/06 03:49:17;;;;;;;9.87;8.43;;;8.20;39.20;;;;;;5100300;28;20678;-87
2024/03/06 03:51:47;;;;;;;11.57;9.00;;;8.30;40.30;;;;;;5099417;28;20217;-84
2024/03/06 03:54:13;;;;;;;11.20;8.43;;;8.20;40.60;;;;;;5098928;28;20190;-95
2024/03/06 03:56:41;;;;;;;10.23;9.03;;;8.30;40.40;;;;;;5096776;28;20171;-87
2024/03/06 03:59:08;;;;;;;10.30;8.97;;;8.20;40.40;;;;;;5100814;28;20168;-85
2024/03/06 04:01:33;;;;;;;10.50;9.10;;;8.20;42.20;;;;;;5111494;28;20164;-84
2024/03/06 04:04:02;;;;;;;11.83;9.13;;;8.10;46.60;;;;;;5107047;28;20198;-83
2024/03/06 04:06:28;;;;;;;11.07;8.80;;;8.00;48.40;;;;;;5102512;28;20190;-85
2024/03/06 04:08:53;;;;;;;12.27;9.47;;;8.10;48.80;;;;;;5102043;28;20180;-83
2024/03/06 04:11:24;;;;;;;9.17;8.27;;;8.10;47.70;;;;;;5103073;28;20172;-85
2024/03/06 04:13:53;;;;;;;11.07;8.80;;;8.00;50.00;;;;;;5096540;28;20178;-86
2024/03/06 04:16:18;;;;;;;10.27;9.20;;;8.00;54.00;;;;;;5096327;28;20644;-83
2024/03/06 04:18:45;;;;;;;10.20;8.73;;;7.80;61.10;;;;;;5097480;28;20217;-94
2024/03/06 04:21:12;;;;;;;11.23;8.97;;;7.70;64.30;;;;;;5097736;28;20512;-86
2024/03/06 04:23:37;;;;;;;11.53;9.57;;;7.80;65.60;;;;;;5095964;28;20651;-86
2024/03/06 04:26:05;;;;;;;10.87;8.57;;;7.90;61.70;;;;;;5096660;28;20167;-95
2024/03/06 04:28:31;;;;;;;9.07;8.10;;;7.80;60.60;;;;;;5098888;28;20650;-88
2024/03/06 04:30:57;;;;;;;9.20;8.00;;;8.00;62.50;;;;;;5097546;28;20215;-90
2024/03/06 04:33:23;;;;;;;9.50;8.50;;;7.80;65.70;;;;;;5096886;28;20172;-85
2024/03/06 04:35:49;;;;;;;10.23;8.73;;;7.90;67.80;;;;;;5080334;28;20214;-83
2024/03/06 04:38:14;;;;;;;10.23;8.63;;;7.80;69.30;;;;;;5096432;28;20700;-93
2024/03/06 04:40:41;;;;;;;11.23;8.97;;;7.90;70.50;;;;;;5098001;28;20171;-84
2024/03/06 04:43:07;;;;;;;9.23;8.27;;;8.00;69.10;;;;;;5098507;28;20168;-85
2024/03/06 04:45:33;;;;;;;8.50;7.60;;;7.90;69.90;;;;;;5099670;28;20224;-93
2024/03/06 04:47:59;;;;;;;9.90;8.43;;;8.10;69.20;;;;;;5096448;28;20262;-88
2024/03/06 04:50:25;;;;;;;9.43;7.87;;;8.00;67.80;;;;;;5098247;28;20292;-83
2024/03/06 04:52:51;;;;;;;9.80;8.63;;;7.90;68.30;;;;;;5095373;28;20167;-85
2024/03/06 04:55:20;;;;;;;9.70;7.97;;;8.00;66.80;;;;;;5095902;28;20643;-85
2024/03/06 04:57:46;;;;;;;10.23;8.73;;;7.90;67.80;;;;;;5096317;28;20175;-84
2024/03/06 05:00:12;;;;;;;12.37;9.13;;;7.90;65.60;;;;;;5097932;28;20183;-90
2024/03/06 05:02:38;;;;;;;10.27;8.33;;;7.90;65.10;;;;;;5096283;28;20196;-84
2024/03/06 05:05:04;;;;;;;11.97;8.83;;;7.90;62.40;;;;;;5094818;28;20179;-84
2024/03/06 05:07:31;;;;;;;11.77;9.90;;;7.90;59.40;;;;;;5097303;28;20267;-88
2024/03/06 05:10:01;;;;;;;12.40;10.47;;;8.00;56.20;;;;;;5101880;28;20340;-84
2024/03/06 05:12:30;;;;;;;14.30;11.60;;;8.00;52.10;;;;;;5102269;28;20193;-83
2024/03/06 05:14:55;;;;;;;13.43;10.53;;;8.00;50.30;;;;;;5101268;28;20175;-85
2024/03/06 05:17:21;;;;;;;11.50;10.30;;;8.00;52.20;;;;;;5101883;28;20193;-87
2024/03/06 05:19:54;;;;;;;10.53;9.37;;;7.90;54.00;;;;;;5083512;28;20738;-87
2024/03/06 05:22:21;;;;;;;9.23;8.33;;;7.80;59.90;;;;;;5097717;28;20205;-85
2024/03/06 05:24:58;;;;;;;10.93;9.03;;;7.80;64.00;;;;;;5099213;28;20160;-85
2024/03/06 05:27:24;;;;;;;10.40;8.83;;;7.80;66.90;;;;;;5095760;28;20545;-84
2024/03/06 05:29:50;;;;;;;11.57;8.63;;;7.70;69.40;;;;;;5095999;28;20216;-83
2024/03/06 05:32:16;;;;;;;10.00;8.67;;;8.00;73.10;;;;;;5102345;28;20168;-84
2024/03/06 05:34:42;;;;;;;11.70;9.30;;;7.80;71.10;;;;;;5089633;28;20588;-86
2024/03/06 05:37:10;;;;;;;10.60;8.70;;;7.70;73.70;;;;;;5106271;28;20175;-89
2024/03/06 05:39:38;;;;;;;10.07;8.23;;;7.60;78.90;;;;;;5105138;28;20199;-85
2024/03/06 05:42:04;;;;;;;12.57;10.30;;;7.80;78.70;;;;;;5103387;28;20170;-84
2024/03/06 05:44:31;;;;;;;11.63;10.23;;;7.90;76.80;;;;;;5101552;28;20172;-86
2024/03/06 05:47:01;;;;;;;13.50;11.13;;;8.00;73.80;;;;;;5102717;28;20183;-85
2024/03/06 05:49:28;;;;;;;13.10;10.27;;;8.20;72.90;;;;;;5082921;28;20212;-89
2024/03/06 05:51:57;;;;;;;12.20;9.20;;;8.00;70.70;;;;;;5101280;28;20176;-89
2024/03/06 05:54:25;;;;;;;10.30;9.00;;;8.00;68.50;;;;;;5099843;28;20184;-91
2024/03/06 05:56:52;;;;;;;10.80;8.67;;;8.10;65.40;;;;;;5102830;28;20612;-90
2024/03/06 05:59:18;;;;;;;12.00;8.73;;;8.20;58.80;;;;;;5101777;28;20189;-85
2024/03/06 06:01:44;;;;;;;10.27;8.50;;;8.20;54.90;;;;;;5098472;28;20175;-88
2024/03/06 06:04:13;;;;;;;9.60;7.73;;;8.00;53.80;;;;;;5100714;28;20690;-86
2024/03/06 06:06:40;;;;;;;9.77;8.47;;;7.90;58.30;;;;;;5100438;28;20164;-85
2024/03/06 06:09:07;;;;;;;10.83;9.30;;;7.90;59.60;;;;;;5097311;28;20187;-85
2024/03/06 06:11:35;;;;;;;11.17;9.33;;;8.10;58.10;;;;;;5097592;28;20167;-87
2024/03/06 06:14:01;;;;;;;10.73;9.17;;;8.10;53.70;;;;;;5098328;28;20174;-86
2024/03/06 06:16:27;;;;;;;10.30;9.20;;;8.20;51.90;;;;;;5098869;28;20172;-84
2024/03/06 06:18:54;;;;;;;12.50;9.77;;;8.10;49.80;;;;;;5098612;28;20176;-88
2024/03/06 06:21:20;;;;;;;11.10;9.30;;;8.20;49.90;;;;;;5098835;28;20624;-94
2024/03/06 06:23:46;;;;;;;10.03;9.00;;;8.10;49.70;;;;;;5098274;28;20179;-85
2024/03/06 06:26:13;;;;;;;12.43;9.90;;;8.20;48.80;;;;;;5097959;28;20175;-84
2024/03/06 06:28:42;;;;;;;13.40;9.80;;;8.10;46.20;;;;;;5080817;28;20279;-85
2024/03/06 06:31:10;;;;;;;12.00;9.57;;;8.30;42.50;;;;;;5098101;28;20332;-85
2024/03/06 06:33:35;;;;;;;10.67;8.80;;;8.10;41.00;;;;;;5098640;28;20514;-83
2024/03/06 06:36:01;;;;;;;11.33;9.73;;;8.20;43.40;;;;;;5101017;28;20229;-90
2024/03/06 06:38:27;;;;;;;13.03;9.47;;;8.20;47.70;;;;;;5098242;28;20168;-83
2024/03/06 06:40:52;;;;;;;12.10;10.00;;;8.00;47.60;;;;;;5095383;28;20184;-85
2024/03/06 06:43:18;;;;;;;12.87;9.40;;;8.10;49.70;;;;;;5099743;28;20172;-81
2024/03/06 06:45:44;;;;;;;13.50;9.33;;;8.00;52.30;;;;;;5096518;28;20258;-84
2024/03/06 06:48:10;;;;;;;11.53;9.70;;;7.90;55.10;;;;;;5094040;28;20642;-84
2024/03/06 06:50:36;;;;;;;11.63;9.27;;;7.90;55.40;;;;;;5095223;28;20263;-83
2024/03/06 06:53:02;;;;;;;16.20;9.63;;;8.00;55.40;;;;;;5093328;28;20603;-82
2024/03/06 06:55:28;;;;;;;10.77;9.53;;;8.00;55.30;;;;;;5093683;28;20179;-90
2024/03/06 06:57:55;;;;;;;13.33;9.37;;;8.00;58.80;;;;;;5093963;28;20196;-84
2024/03/06 07:00:22;;;;;;;10.93;9.80;;;7.80;59.20;;;;;;5094914;28;20156;-85
2024/03/06 07:02:48;;;;;;;13.10;9.37;;;7.90;61.10;;;;;;5092339;28;20192;-83
2024/03/06 07:05:15;;;;;;;13.10;9.50;;;8.00;56.40;;;;;;5093184;28;20183;-85
2024/03/06 07:07:41;;;;;;;15.50;9.97;;;8.00;56.30;;;;;;5094528;28;20172;-84
2024/03/06 07:10:08;;;;;;;15.00;9.57;;;8.00;62.10;;;;;;5095838;28;20663;-83
2024/03/06 07:12:33;;;;;;;14.47;10.40;;;7.90;65.60;;;;;;5094690;28;20220;-83
2024/03/06 07:14:59;;;;;;;18.30;9.97;;;8.20;65.30;;;;;;5098102;28;20516;-83
2024/03/06 07:17:25;;;;;;;15.67;10.60;;;8.20;61.50;;;;;;5094063;28;20270;-84
2024/03/06 07:19:52;;;;;;;20.83;10.60;;;8.30;59.50;;;;;;5094539;28;20624;-83
2024/03/06 07:22:18;;;;;;;16.60;10.27;;;8.30;52.40;;;;;;5093570;28;20641;-84
2024/03/06 07:24:44;;;;;;;14.10;10.00;;;8.30;50.30;;;;;;5093928;28;20255;-82
2024/03/06 07:27:10;;;;;;;15.80;9.53;;;8.30;54.00;;;;;;5083345;28;20646;-85
2024/03/06 07:29:36;;;;;;;19.63;10.43;;;8.40;57.50;;;;;;5086829;28;20211;-86
2024/03/06 07:32:05;;;;;;;17.47;10.20;;;8.30;56.40;;;;;;5096594;28;20172;-88
2024/03/06 07:34:31;;;;;;;19.03;10.20;;;8.40;54.60;;;;;;5093824;28;20267;-88
2024/03/06 07:36:59;;;;;;;18.73;10.13;;;8.40;54.10;;;;;;5091023;28;20224;-90
2024/03/06 07:39:25;;;;;;;18.00;10.47;;;8.50;54.80;;;;;;5092877;28;20206;-85
2024/03/06 07:41:51;;;;;;;14.77;9.73;;;8.50;55.30;;;;;;5092605;28;20275;-87
2024/03/06 07:44:17;;;;;;;15.70;10.17;;;8.60;54.70;;;;;;5092355;28;20613;-87
2024/03/06 07:46:43;;;;;;;13.13;9.60;;;8.70;55.00;;;;;;5092843;28;20180;-86
2024/03/06 07:49:08;;;;;;;16.50;9.70;;;8.60;53.90;;;;;;5094065;28;20178;-86
2024/03/06 07:51:35;;;;;;;11.13;9.17;;;8.60;51.10;;;;;;5093269;28;20210;-86
2024/03/06 07:54:01;;;;;;;10.97;8.60;;;8.50;50.60;;;;;;5093697;28;20472;-88
2024/03/06 07:56:27;;;;;;;13.13;8.17;;;8.60;53.00;;;;;;5093542;28;20183;-87
2024/03/06 07:58:53;;;;;;;9.97;7.60;;;8.60;50.10;;;;;;5093475;28;20171;-90
2024/03/06 08:01:20;;;;;;;11.83;7.97;;;8.60;49.30;;;;;;5093464;28;20176;-86
2024/03/06 08:03:46;;;;;;;15.03;8.67;;;8.60;50.90;;;;;;5093964;28;20258;-88
2024/03/06 08:06:15;;;;;;;14.60;8.70;;;8.70;49.60;;;;;;5095398;28;20225;-86
2024/03/06 08:08:44;;;;;;;14.43;8.07;;;9.00;45.00;;;;;;5096761;28;20271;-85
2024/03/06 08:11:11;;;;;;;11.63;8.10;;;9.00;39.20;;;;;;5092490;28;20215;-87
2024/03/06 08:13:37;;;;;;;13.37;8.83;;;9.10;34.40;;;;;;5092950;28;20171;-84
2024/03/06 08:16:04;;;;;;;12.40;7.87;;;8.90;34.40;;;;;;5086713;28;20540;-85
2024/03/06 08:18:30;;;;;;;14.33;9.13;;;8.80;36.10;;;;;;5091363;28;20218;-85
2024/03/06 08:20:56;;;;;;;10.97;8.07;;;9.00;38.90;;;;;;5090775;28;20172;-84
2024/03/06 08:23:23;;;;;;;11.00;7.67;;;9.20;34.00;;;;;;5091432;28;20172;-88
2024/03/06 08:25:49;;;;;;;10.13;7.10;;;9.30;29.00;;;;;;5091750;28;20202;-85
2024/03/06 08:28:15;;;;;;;9.90;7.07;;;9.50;22.60;;;;;;5091298;28;20604;-86
2024/03/06 08:30:41;;;;;;;8.07;6.73;;;9.60;12.50;;;;;;5091007;28;20218;-86
2024/03/06 08:33:07;;;;;;;9.77;7.20;;;9.60;8.20;;;;;;5091336;28;20172;-86
2024/03/06 08:35:32;;;;;;;11.83;6.70;;;9.50;9.00;;;;;;5091449;28;20324;-85
2024/03/06 08:37:58;;;;;;;12.50;6.90;;;9.60;8.50;;;;;;5090629;28;20191;-85
2024/03/06 08:40:25;;;;;;;9.93;6.87;;;9.60;8.20;;;;;;5091435;28;20203;-87
2024/03/06 08:42:51;;;;;;;11.23;6.90;;;9.70;6.80;;;;;;5091719;28;20175;-84
2024/03/06 08:45:17;;;;;;;10.60;7.37;;;9.70;4.90;;;;;;5090987;28;20525;-87
2024/03/06 08:47:47;;;;;;;9.70;6.17;;;9.70;7.50;;;;;;5091504;28;20220;-88
2024/03/06 08:50:13;;;;;;;9.47;6.50;;;9.80;2.90;;;;;;5091432;28;20203;-85
2024/03/06 08:52:41;;;;;;;8.13;5.87;;;9.70;1.00;;;;;;5091468;28;20706;-83
2024/03/06 08:55:07;;;;;;;10.43;6.60;;;9.60;4.60;;;;;;5091289;28;20670;-85
2024/03/06 08:57:34;;;;;;;8.77;6.30;;;9.50;12.50;;;;;;5090908;28;20175;-82
2024/03/06 09:00:00;;;;;;;9.80;6.53;;;9.50;17.10;;;;;;5071802;28;20172;-87
2024/03/06 09:02:26;;;;;;;7.40;6.00;;;9.70;16.30;;;;;;5089079;28;20194;-88
2024/03/06 09:04:52;;;;;;;8.93;6.53;;;9.70;13.70;;;;;;5092846;28;20175;-85
2024/03/06 09:07:18;;;;;;;10.53;6.53;;;9.90;9.80;;;;;;5092983;28;20183;-86
2024/03/06 09:09:44;;;;;;;8.80;6.73;;;9.80;12.00;;;;;;5095205;28;20222;-88
2024/03/06 09:12:10;;;;;;;8.97;6.63;;;9.90;5.40;;;;;;5094605;28;20176;-86
2024/03/06 09:14:37;;;;;;;10.13;7.07;;;10.00;4.40;;;;;;5095015;28;20549;-87
2024/03/06 09:17:03;;;;;;;9.67;6.87;;;10.40;1.00;;;;;;5095360;28;20183;-86
2024/03/06 09:19:30;;;;;;;8.60;6.70;;;10.30;1.00;;;;;;5095717;28;20172;-85
2024/03/06 09:21:56;;;;;;;10.43;7.20;;;10.50;1.00;;;;;;5095073;28;20270;-88
2024/03/06 09:24:25;;;;;;;12.23;7.93;;;10.40;1.00;;;;;;5094899;28;20182;-88
2024/03/06 09:26:51;;;;;;;10.93;7.23;;;10.30;1.00;;;;;;5094163;28;20176;-79
2024/03/06 09:29:18;;;;;;;10.23;7.00;;;10.30;1.00;;;;;;5095199;28;20191;-78
2024/03/06 09:31:44;;;;;;;7.53;6.73;;;10.40;1.00;;;;;;5094036;28;20184;-88
2024/03/06 09:34:12;;;;;;;10.93;7.00;;;10.60;1.00;;;;;;5095512;28;20249;-89
2024/03/06 09:36:39;;;;;;;10.63;7.03;;;10.80;1.00;;;;;;5094596;28;20752;-88
2024/03/06 09:39:04;;;;;;;9.13;7.23;;;11.00;1.00;;;;;;5094609;28;20573;-89
2024/03/06 09:41:31;;;;;;;7.67;6.87;;;11.20;1.00;;;;;;5094919;28;20185;-88
2024/03/06 09:43:57;;;;;;;10.20;6.87;;;11.40;1.00;;;;;;5095312;28;20182;-90
2024/03/06 09:46:22;;;;;;;10.20;7.20;;;11.60;1.00;;;;;;5094781;28;20177;-91
2024/03/06 09:48:51;;;;;;;9.37;6.37;;;11.80;1.00;;;;;;5095392;28;20202;-87
2024/03/06 09:51:17;;;;;;;8.30;6.57;;;11.90;1.00;;;;;;5090501;28;20258;-75
2024/03/06 09:53:43;;;;;;;10.67;6.73;;;12.10;1.00;;;;;;5095046;28;20641;-76
2024/03/06 09:56:09;;;;;;;8.90;6.73;;;12.30;1.00;;;;;;5094704;28;20651;-76
2024/03/06 09:58:37;;;;;;;8.53;7.43;;;12.40;1.00;;;;;;5094321;28;20177;-84
2024/03/06 10:01:07;;;;;;;10.57;6.67;;;12.40;99.90;;;;;;5092650;28;20256;-81
2024/03/06 10:03:36;;;;;;;8.27;6.50;;;12.30;99.90;;;;;;5093418;28;20205;-84
2024/03/06 10:06:02;;;;;;;10.70;7.03;;;12.20;99.90;;;;;;5092671;28;20201;-82
2024/03/06 10:08:28;;;;;;;9.37;7.40;;;12.30;99.90;;;;;;5091524;28;20640;-83
2024/03/06 10:10:54;;;;;;;9.30;7.30;;;12.20;99.90;;;;;;5091736;28;20214;-84
2024/03/06 10:13:24;;;;;;;11.23;6.63;;;12.20;99.90;;;;;;5092560;28;20177;-83
2024/03/06 10:15:59;;;;;;;9.93;7.00;;;12.30;99.90;;;;;;5092531;28;20168;-84
2024/03/06 10:18:27;;;;;;;8.80;6.93;;;12.30;99.90;;;;;;5092363;28;20171;-84
2024/03/06 10:20:53;;;;;;;9.30;6.50;;;12.30;99.90;;;;;;5093896;28;20191;-85
2024/03/06 10:23:19;;;;;;;7.33;5.80;;;12.40;99.90;;;;;;5093774;28;20167;-83
2024/03/06 10:25:46;;;;;;;6.60;5.03;;;12.50;99.90;;;;;;5092596;28;20171;-84
2024/03/06 10:28:12;;;;;;;7.27;4.93;;;12.60;99.90;;;;;;5093952;28;20623;-84
2024/03/06 10:30:42;;;;;;;8.37;5.50;;;12.30;99.90;;;;;;5094649;28;20261;-84
2024/03/06 10:33:08;;;;;;;7.43;5.57;;;12.40;99.90;;;;;;5094350;28;20205;-84
2024/03/06 10:35:38;;;;;;;7.00;5.23;;;12.20;99.90;;;;;;5091841;28;20243;-83
2024/03/06 10:38:06;;;;;;;6.50;4.70;;;12.30;99.90;;;;;;5091727;28;20610;-85
2024/03/06 10:40:33;;;;;;;6.90;4.30;;;12.40;99.90;;;;;;5091612;28;20202;-84
2024/03/06 10:43:00;;;;;;;6.60;4.33;;;12.40;99.90;;;;;;5091590;28;20172;-84
2024/03/06 10:45:41;;;;;;;5.80;4.40;;;12.40;99.90;;;;;;5093334;28;20568;-84
2024/03/06 10:48:10;;;;;;;5.90;4.37;;;12.40;99.90;;;;;;5092302;28;20183;-84
2024/03/06 10:50:44;;;;;;;7.73;4.10;;;12.50;99.90;;;;;;5093943;28;20290;-81
2024/03/06 10:53:12;;;;;;;6.27;4.20;;;12.90;99.90;;;;;;5092541;28;20174;-84
2024/03/06 10:55:38;;;;;;;8.50;3.77;;;13.10;99.90;;;;;;5094151;28;20214;-83
2024/03/06 10:58:09;;;;;;;8.53;4.20;;;13.00;99.90;;;;;;5092593;28;20219;-84
2024/03/06 11:00:39;;;;;;;8.17;4.90;;;13.10;99.90;;;;;;5095229;28;20163;-84
2024/03/06 11:03:13;;;;;;;8.70;4.47;;;13.30;99.90;;;;;;5047778;28;1284424;-86
2024/03/06 11:05:40;;;;;;;8.37;4.60;;;13.50;99.90;;;;;;5094751;28;20284;-84
2024/03/06 11:08:10;;;;;;;8.10;4.93;;;13.80;99.90;;;;;;5093269;28;20171;-86
2024/03/06 11:10:38;;;;;;;7.77;5.10;;;13.40;99.90;;;;;;5092669;28;20291;-93
2024/03/06 11:13:08;;;;;;;7.97;5.50;;;13.20;99.90;;;;;;5093139;28;20179;-84
2024/03/06 11:15:34;;;;;;;9.43;4.87;;;13.20;99.90;;;;;;5092840;28;20175;-84
2024/03/06 11:18:28;;;;;;;6.07;4.57;;;13.10;99.90;;;;;;5092341;28;20168;-84
2024/03/06 11:21:03;;;;;;;9.80;4.23;;;13.20;99.90;;;;;;5092429;28;20201;-83
2024/03/06 11:23:30;;;;;;;7.13;4.70;;;13.20;99.90;;;;;;5092497;28;20175;-83
2024/03/06 11:26:04;;;;;;;8.13;4.00;;;13.20;99.90;;;;;;5092399;28;20168;-83
2024/03/06 11:28:35;;;;;;;6.93;4.07;;;13.40;99.90;;;;;;5101403;28;20188;-84
2024/03/06 11:31:04;;;;;;;6.50;4.10;;;13.20;99.90;;;;;;5102693;28;20235;-82
2024/03/06 11:33:39;;;;;;;5.47;3.80;;;13.10;99.90;;;;;;5095022;28;20171;-82
2024/03/06 11:36:28;;;;;;;6.67;3.87;;;13.00;99.90;;;;;;5093419;28;20179;-85
2024/03/06 11:39:07;;;;;;;4.93;3.90;;;13.00;99.90;;;;;;5092192;28;20202;-83
2024/03/06 11:41:48;;;;;;;7.20;3.93;;;13.20;99.90;;;;;;5092213;28;20172;-83
2024/03/06 11:44:21;;;;;;;7.67;4.30;;;13.40;99.90;;;;;;5092050;28;20635;-82
2024/03/06 11:47:03;;;;;;;6.20;3.80;;;13.50;99.90;;;;;;5092009;28;20182;-83
2024/03/06 11:49:33;;;;;;;5.17;3.03;;;13.40;99.90;;;;;;5092102;28;20709;-83
2024/03/06 11:52:10;;;;;;;7.50;3.93;;;13.30;99.90;;;;;;5091842;28;20248;-83
2024/03/06 11:54:37;;;;;;;7.03;4.10;;;13.40;99.90;;;;;;5092459;28;20167;-86
2024/03/06 11:57:05;;;;;;;7.60;4.33;;;13.60;99.90;;;;;;5091961;28;20187;-83
2024/03/06 11:59:35;;;;;;;7.83;4.10;;;14.00;99.90;;;;;;5093440;28;20167;-83
2024/03/06 12:02:05;;;;;;;4.90;3.43;;;14.30;99.90;;;;;;5091645;28;20187;-84
2024/03/06 12:04:33;;;;;;;8.23;4.00;;;14.30;99.90;;;;;;5091725;28;20197;-83
2024/03/06 12:07:04;;;;;;;6.67;3.17;;;14.00;99.90;;;;;;5092747;28;20251;-82
2024/03/06 12:09:31;;;;;;;4.67;2.93;;;14.20;99.90;;;;;;5093614;28;20193;-82
2024/03/06 12:11:57;;;;;;;7.37;3.60;;;14.30;99.90;;;;;;5091178;28;20171;-83
2024/03/06 12:14:23;;;;;;;6.50;3.27;;;14.40;99.90;;;;;;5091366;28;20163;-84
2024/03/06 12:16:58;;;;;;;6.17;3.00;;;14.30;99.90;;;;;;5089824;28;20628;-93
2024/03/06 12:19:28;;;;;;;5.73;2.77;;;14.30;99.90;;;;;;5089503;28;20674;-84
2024/03/06 12:21:54;;;;;;;6.60;2.90;;;14.20;99.90;;;;;;5090796;28;20539;-87
2024/03/06 12:24:24;;;;;;;7.57;3.00;;;14.20;99.90;;;;;;5093887;28;20648;-92
2024/03/06 12:27:04;;;;;;;6.00;2.50;;;14.40;99.90;;;;;;5104870;28;20193;-92
2024/03/06 12:29:37;;;;;;;5.27;2.50;;;14.50;99.90;;;;;;5100952;28;20259;-86
2024/03/06 12:32:04;;;;;;;6.63;2.87;;;14.00;99.90;;;;;;5101563;28;20172;-92
2024/03/06 12:34:40;;;;;;;6.60;3.00;;;13.80;99.90;;;;;;5105731;28;20153;-89
2024/03/06 12:37:10;;;;;;;5.10;2.90;;;13.70;99.90;;;;;;5101925;28;20175;-86
2024/03/06 12:39:36;;;;;;;4.37;2.70;;;14.10;99.90;;;;;;5094573;28;20203;-94
2024/03/06 12:42:02;;;;;;;5.63;2.87;;;14.20;99.90;;;;;;5092880;28;20640;-93
2024/03/06 12:44:27;;;;;;;4.90;3.10;;;14.30;99.90;;;;;;5088844;28;20715;-84
2024/03/06 12:46:54;;;;;;;5.33;3.10;;;14.30;99.90;;;;;;5087468;28;20190;-95
2024/03/06 12:49:20;;;;;;;6.40;3.20;;;14.30;99.90;;;;;;5074160;28;20168;-93
2024/03/06 12:51:46;;;;;;;6.97;3.30;;;13.90;99.90;;;;;;5072518;28;20203;-86